sensor_id;sensor_type;location;lat;lon;timestamp;P1;durP1;ratioP1;P2;durP2;ratioP2
11269;SDS011;5692;48.956;9.200;2022-08-19T00:01:40;209.10;;;199.10;;
11269;SDS011;5692;48.956;9.200;2022-08-19T00:04:09;220.60;;;210.05;;
11269;SDS011;5692;48.956;9.200;2022-08-19T00:06:37;211.73;;;201.57;;
11269;SDS011;5692;48.956;9.200;2022-08-19T00:09:04;199.32;;;189.77;;
11269;SDS011;5692;48.956;9.200;2022-08-19T00:11:30;212.30;;;202.10;;
11269;SDS011;5692;48.956;9.200;2022-08-19T00:14:00;208.98;;;198.98;;
11269;SDS011;5692;48.956;9.200;2022-08-19T00:16:26;214.02;;;203.77;;
11269;SDS011;5692;48.956;9.200;2022-08-19T00:18:53;215.93;;;205.60;;
11269;SDS011;5692;48.956;9.200;2022-08-19T00:21:20;224.90;;;214.15;;
11269;SDS011;5692;48.956;9.200;2022-08-19T00:23:47;215.15;;;204.85;;
11269;SDS011;5692;48.956;9.200;2022-08-19T00:26:13;224.95;;;214.18;;
11269;SDS011;5692;48.956;9.200;2022-08-19T00:28:39;212.90;;;202.70;;
11269;SDS011;5692;48.956;9.200;2022-08-19T00:31:05;230.40;;;219.40;;
11269;SDS011;5692;48.956;9.200;2022-08-19T00:33:32;211.90;;;201.75;;
11269;SDS011;5692;48.956;9.200;2022-08-19T00:35:59;205.20;;;195.38;;
11269;SDS011;5692;48.956;9.200;2022-08-19T00:38:31;213.68;;;203.45;;
11269;SDS011;5692;48.956;9.200;2022-08-19T00:41:00;210.63;;;200.55;;
11269;SDS011;5692;48.956;9.200;2022-08-19T00:43:26;213.35;;;203.15;;
11269;SDS011;5692;48.956;9.200;2022-08-19T00:45:53;211.85;;;201.70;;
11269;SDS011;5692;48.956;9.200;2022-08-19T00:48:19;209.20;;;199.20;;
11269;SDS011;5692;48.956;9.200;2022-08-19T00:50:48;194.55;;;185.25;;
11269;SDS011;5692;48.956;9.200;2022-08-19T00:53:16;212.13;;;201.98;;
11269;SDS011;5692;48.956;9.200;2022-08-19T00:55:45;220.07;;;209.55;;
11269;SDS011;5692;48.956;9.200;2022-08-19T00:58:13;225.93;;;215.13;;
11269;SDS011;5692;48.956;9.200;2022-08-19T01:00:40;216.70;;;206.32;;
11269;SDS011;5692;48.956;9.200;2022-08-19T01:03:07;228.88;;;217.93;;
11269;SDS011;5692;48.956;9.200;2022-08-19T01:05:33;203.77;;;194.02;;
11269;SDS011;5692;48.956;9.200;2022-08-19T01:08:00;236.23;;;224.93;;
11269;SDS011;5692;48.956;9.200;2022-08-19T01:10:30;214.80;;;204.50;;
11269;SDS011;5692;48.956;9.200;2022-08-19T01:12:57;210.60;;;200.52;;
11269;SDS011;5692;48.956;9.200;2022-08-19T01:15:25;216.88;;;206.50;;
11269;SDS011;5692;48.956;9.200;2022-08-19T01:17:55;225.55;;;214.75;;
11269;SDS011;5692;48.956;9.200;2022-08-19T01:20:23;212.77;;;202.57;;
11269;SDS011;5692;48.956;9.200;2022-08-19T01:22:56;218.65;;;208.20;;
11269;SDS011;5692;48.956;9.200;2022-08-19T01:25:24;218.75;;;208.27;;
11269;SDS011;5692;48.956;9.200;2022-08-19T01:27:52;219.18;;;208.68;;
11269;SDS011;5692;48.956;9.200;2022-08-19T01:30:23;215.88;;;205.57;;
11269;SDS011;5692;48.956;9.200;2022-08-19T01:32:50;224.43;;;213.70;;
11269;SDS011;5692;48.956;9.200;2022-08-19T01:35:16;223.02;;;212.35;;
11269;SDS011;5692;48.956;9.200;2022-08-19T01:37:44;221.57;;;210.98;;
11269;SDS011;5692;48.956;9.200;2022-08-19T01:40:11;219.60;;;209.07;;
11269;SDS011;5692;48.956;9.200;2022-08-19T01:42:37;227.32;;;216.43;;
11269;SDS011;5692;48.956;9.200;2022-08-19T01:45:08;210.63;;;200.55;;
11269;SDS011;5692;48.956;9.200;2022-08-19T01:47:35;224.88;;;214.07;;
11269;SDS011;5692;48.956;9.200;2022-08-19T01:50:02;213.10;;;202.90;;
11269;SDS011;5692;48.956;9.200;2022-08-19T01:52:28;213.73;;;203.50;;
11269;SDS011;5692;48.956;9.200;2022-08-19T01:54:55;216.50;;;206.15;;
11269;SDS011;5692;48.956;9.200;2022-08-19T01:57:23;216.15;;;205.80;;
11269;SDS011;5692;48.956;9.200;2022-08-19T01:59:50;212.32;;;202.18;;
11269;SDS011;5692;48.956;9.200;2022-08-19T02:02:17;222.27;;;211.68;;
11269;SDS011;5692;48.956;9.200;2022-08-19T02:04:45;207.95;;;198.00;;
11269;SDS011;5692;48.956;9.200;2022-08-19T02:07:15;204.50;;;194.70;;
11269;SDS011;5692;48.956;9.200;2022-08-19T02:09:41;209.98;;;199.93;;
11269;SDS011;5692;48.956;9.200;2022-08-19T02:12:07;211.73;;;201.60;;
11269;SDS011;5692;48.956;9.200;2022-08-19T02:14:34;224.68;;;213.93;;
11269;SDS011;5692;48.956;9.200;2022-08-19T02:17:00;211.63;;;201.50;;
11269;SDS011;5692;48.956;9.200;2022-08-19T02:19:26;225.57;;;214.77;;
11269;SDS011;5692;48.956;9.200;2022-08-19T02:21:52;216.55;;;206.15;;
11269;SDS011;5692;48.956;9.200;2022-08-19T02:24:19;203.82;;;194.07;;
11269;SDS011;5692;48.956;9.200;2022-08-19T02:26:45;223.85;;;213.15;;
11269;SDS011;5692;48.956;9.200;2022-08-19T02:29:11;212.73;;;202.52;;
11269;SDS011;5692;48.956;9.200;2022-08-19T02:31:37;209.40;;;199.40;;
11269;SDS011;5692;48.956;9.200;2022-08-19T02:34:06;218.55;;;208.07;;
11269;SDS011;5692;48.956;9.200;2022-08-19T02:36:32;213.65;;;203.43;;
11269;SDS011;5692;48.956;9.200;2022-08-19T02:38:58;211.25;;;201.15;;
11269;SDS011;5692;48.956;9.200;2022-08-19T02:41:28;212.25;;;202.10;;
11269;SDS011;5692;48.956;9.200;2022-08-19T02:43:56;197.68;;;188.23;;
11269;SDS011;5692;48.956;9.200;2022-08-19T02:46:26;223.75;;;213.05;;
11269;SDS011;5692;48.956;9.200;2022-08-19T02:48:56;213.80;;;203.57;;
11269;SDS011;5692;48.956;9.200;2022-08-19T02:51:25;230.82;;;219.80;;
11269;SDS011;5692;48.956;9.200;2022-08-19T02:53:51;204.90;;;195.10;;
11269;SDS011;5692;48.956;9.200;2022-08-19T02:56:18;221.27;;;210.68;;
11269;SDS011;5692;48.956;9.200;2022-08-19T02:58:44;219.68;;;209.18;;
11269;SDS011;5692;48.956;9.200;2022-08-19T03:01:32;219.48;;;208.98;;
11269;SDS011;5692;48.956;9.200;2022-08-19T03:03:59;202.40;;;192.70;;
11269;SDS011;5692;48.956;9.200;2022-08-19T03:06:26;213.63;;;203.43;;
11269;SDS011;5692;48.956;9.200;2022-08-19T03:08:53;203.10;;;193.40;;
11269;SDS011;5692;48.956;9.200;2022-08-19T03:11:23;204.45;;;194.68;;
11269;SDS011;5692;48.956;9.200;2022-08-19T03:13:49;205.68;;;195.85;;
11269;SDS011;5692;48.956;9.200;2022-08-19T03:16:16;200.00;;;190.40;;
11269;SDS011;5692;48.956;9.200;2022-08-19T03:18:43;193.35;;;184.10;;
11269;SDS011;5692;48.956;9.200;2022-08-19T03:21:09;210.30;;;200.25;;
11269;SDS011;5692;48.956;9.200;2022-08-19T03:23:35;202.77;;;193.07;;
11269;SDS011;5692;48.956;9.200;2022-08-19T03:26:05;206.15;;;196.27;;
11269;SDS011;5692;48.956;9.200;2022-08-19T03:28:31;193.10;;;183.88;;
11269;SDS011;5692;48.956;9.200;2022-08-19T03:31:09;209.57;;;199.57;;
11269;SDS011;5692;48.956;9.200;2022-08-19T03:33:36;200.88;;;191.25;;
11269;SDS011;5692;48.956;9.200;2022-08-19T03:38:28;196.18;;;186.77;;
11269;SDS011;5692;48.956;9.200;2022-08-19T03:40:55;200.63;;;191.02;;
11269;SDS011;5692;48.956;9.200;2022-08-19T03:43:21;210.77;;;200.68;;
11269;SDS011;5692;48.956;9.200;2022-08-19T03:45:47;202.98;;;193.27;;
11269;SDS011;5692;48.956;9.200;2022-08-19T03:48:14;200.65;;;191.05;;
11269;SDS011;5692;48.956;9.200;2022-08-19T03:50:42;197.70;;;188.23;;
11269;SDS011;5692;48.956;9.200;2022-08-19T03:53:08;216.93;;;206.55;;
11269;SDS011;5692;48.956;9.200;2022-08-19T03:55:39;206.95;;;197.05;;
11269;SDS011;5692;48.956;9.200;2022-08-19T03:58:06;207.98;;;198.02;;
11269;SDS011;5692;48.956;9.200;2022-08-19T04:00:32;205.82;;;195.98;;
11269;SDS011;5692;48.956;9.200;2022-08-19T04:02:58;209.57;;;199.55;;
11269;SDS011;5692;48.956;9.200;2022-08-19T04:05:26;215.80;;;205.45;;
11269;SDS011;5692;48.956;9.200;2022-08-19T04:07:53;206.63;;;196.73;;
11269;SDS011;5692;48.956;9.200;2022-08-19T04:10:23;194.77;;;185.45;;
11269;SDS011;5692;48.956;9.200;2022-08-19T04:12:49;217.07;;;206.70;;
11269;SDS011;5692;48.956;9.200;2022-08-19T04:15:15;198.82;;;189.30;;
11269;SDS011;5692;48.956;9.200;2022-08-19T04:17:42;206.35;;;196.48;;
11269;SDS011;5692;48.956;9.200;2022-08-19T04:20:08;227.20;;;216.35;;
11269;SDS011;5692;48.956;9.200;2022-08-19T04:22:34;206.05;;;196.18;;
11269;SDS011;5692;48.956;9.200;2022-08-19T04:25:01;198.75;;;189.25;;
11269;SDS011;5692;48.956;9.200;2022-08-19T04:27:30;212.02;;;201.88;;
11269;SDS011;5692;48.956;9.200;2022-08-19T04:29:56;195.75;;;186.35;;
11269;SDS011;5692;48.956;9.200;2022-08-19T04:32:22;197.88;;;188.43;;
11269;SDS011;5692;48.956;9.200;2022-08-19T04:34:49;206.90;;;197.00;;
11269;SDS011;5692;48.956;9.200;2022-08-19T04:37:15;213.85;;;203.65;;
11269;SDS011;5692;48.956;9.200;2022-08-19T04:39:41;214.35;;;204.10;;
11269;SDS011;5692;48.956;9.200;2022-08-19T04:42:25;215.55;;;205.25;;
11269;SDS011;5692;48.956;9.200;2022-08-19T04:45:04;203.45;;;193.75;;
11269;SDS011;5692;48.956;9.200;2022-08-19T04:47:31;219.20;;;208.70;;
11269;SDS011;5692;48.956;9.200;2022-08-19T04:49:59;218.27;;;207.82;;
11269;SDS011;5692;48.956;9.200;2022-08-19T04:52:26;214.18;;;203.93;;
11269;SDS011;5692;48.956;9.200;2022-08-19T04:54:52;218.23;;;207.77;;
11269;SDS011;5692;48.956;9.200;2022-08-19T04:57:20;205.35;;;195.55;;
11269;SDS011;5692;48.956;9.200;2022-08-19T04:59:46;197.82;;;188.35;;
11269;SDS011;5692;48.956;9.200;2022-08-19T05:02:18;211.30;;;201.20;;
11269;SDS011;5692;48.956;9.200;2022-08-19T05:04:44;209.13;;;199.13;;
11269;SDS011;5692;48.956;9.200;2022-08-19T05:07:10;195.95;;;186.55;;
11269;SDS011;5692;48.956;9.200;2022-08-19T05:09:37;196.65;;;187.23;;
11269;SDS011;5692;48.956;9.200;2022-08-19T05:12:03;200.18;;;190.60;;
11269;SDS011;5692;48.956;9.200;2022-08-19T05:14:32;197.90;;;188.43;;
11269;SDS011;5692;48.956;9.200;2022-08-19T05:16:58;192.07;;;182.90;;
11269;SDS011;5692;48.956;9.200;2022-08-19T05:19:24;190.25;;;181.15;;
11269;SDS011;5692;48.956;9.200;2022-08-19T05:22:11;207.77;;;197.82;;
11269;SDS011;5692;48.956;9.200;2022-08-19T05:24:58;171.75;;;163.55;;
11269;SDS011;5692;48.956;9.200;2022-08-19T05:27:25;193.10;;;183.85;;
11269;SDS011;5692;48.956;9.200;2022-08-19T05:29:51;200.13;;;190.52;;
11269;SDS011;5692;48.956;9.200;2022-08-19T05:32:20;200.93;;;191.32;;
11269;SDS011;5692;48.956;9.200;2022-08-19T05:34:48;188.95;;;179.93;;
11269;SDS011;5692;48.956;9.200;2022-08-19T05:37:14;192.25;;;183.05;;
11269;SDS011;5692;48.956;9.200;2022-08-19T05:39:40;184.30;;;175.50;;
11269;SDS011;5692;48.956;9.200;2022-08-19T05:42:10;192.10;;;182.93;;
11269;SDS011;5692;48.956;9.200;2022-08-19T05:44:38;193.15;;;183.93;;
11269;SDS011;5692;48.956;9.200;2022-08-19T05:47:05;202.88;;;193.18;;
11269;SDS011;5692;48.956;9.200;2022-08-19T05:49:32;197.02;;;187.63;;
11269;SDS011;5692;48.956;9.200;2022-08-19T05:51:58;190.43;;;181.32;;
11269;SDS011;5692;48.956;9.200;2022-08-19T05:54:26;194.77;;;185.43;;
11269;SDS011;5692;48.956;9.200;2022-08-19T05:56:53;196.60;;;187.20;;
11269;SDS011;5692;48.956;9.200;2022-08-19T05:59:19;211.02;;;200.95;;
11269;SDS011;5692;48.956;9.200;2022-08-19T06:01:47;209.90;;;199.85;;
11269;SDS011;5692;48.956;9.200;2022-08-19T06:04:15;198.18;;;188.68;;
11269;SDS011;5692;48.956;9.200;2022-08-19T06:06:43;200.10;;;190.50;;
11269;SDS011;5692;48.956;9.200;2022-08-19T06:09:09;192.85;;;183.63;;
11269;SDS011;5692;48.956;9.200;2022-08-19T06:14:12;194.27;;;184.95;;
11269;SDS011;5692;48.956;9.200;2022-08-19T06:16:39;207.20;;;197.30;;
11269;SDS011;5692;48.956;9.200;2022-08-19T06:19:13;202.85;;;193.15;;
11269;SDS011;5692;48.956;9.200;2022-08-19T06:21:41;189.50;;;180.43;;
11269;SDS011;5692;48.956;9.200;2022-08-19T06:24:09;174.90;;;166.52;;
11269;SDS011;5692;48.956;9.200;2022-08-19T06:26:36;193.30;;;184.05;;
11269;SDS011;5692;48.956;9.200;2022-08-19T06:29:03;200.45;;;190.85;;
11269;SDS011;5692;48.956;9.200;2022-08-19T06:31:31;213.80;;;203.57;;
11269;SDS011;5692;48.956;9.200;2022-08-19T06:34:01;197.57;;;188.13;;
11269;SDS011;5692;48.956;9.200;2022-08-19T06:36:30;198.18;;;188.68;;
11269;SDS011;5692;48.956;9.200;2022-08-19T06:39:03;198.48;;;188.98;;
11269;SDS011;5692;48.956;9.200;2022-08-19T06:41:30;192.07;;;182.88;;
11269;SDS011;5692;48.956;9.200;2022-08-19T06:43:57;194.07;;;184.77;;
11269;SDS011;5692;48.956;9.200;2022-08-19T06:46:23;189.25;;;180.20;;
11269;SDS011;5692;48.956;9.200;2022-08-19T06:48:49;198.65;;;189.15;;
11269;SDS011;5692;48.956;9.200;2022-08-19T06:51:18;189.75;;;180.70;;
11269;SDS011;5692;48.956;9.200;2022-08-19T06:53:47;196.13;;;186.73;;
11269;SDS011;5692;48.956;9.200;2022-08-19T06:56:19;196.80;;;187.40;;
11269;SDS011;5692;48.956;9.200;2022-08-19T06:58:46;198.73;;;189.20;;
11269;SDS011;5692;48.956;9.200;2022-08-19T07:01:13;189.60;;;180.50;;
11269;SDS011;5692;48.956;9.200;2022-08-19T07:03:39;208.07;;;198.13;;
11269;SDS011;5692;48.956;9.200;2022-08-19T07:08:32;206.18;;;196.32;;
11269;SDS011;5692;48.956;9.200;2022-08-19T07:10:58;179.98;;;171.38;;
11269;SDS011;5692;48.956;9.200;2022-08-19T07:13:25;200.05;;;190.48;;
11269;SDS011;5692;48.956;9.200;2022-08-19T07:15:51;193.48;;;184.18;;
11269;SDS011;5692;48.956;9.200;2022-08-19T07:18:18;195.40;;;186.05;;
11269;SDS011;5692;48.956;9.200;2022-08-19T07:20:46;200.77;;;191.15;;
11269;SDS011;5692;48.956;9.200;2022-08-19T07:23:13;198.35;;;188.85;;
11269;SDS011;5692;48.956;9.200;2022-08-19T07:25:39;190.43;;;181.30;;
11269;SDS011;5692;48.956;9.200;2022-08-19T07:28:08;191.50;;;182.30;;
11269;SDS011;5692;48.956;9.200;2022-08-19T07:30:37;186.40;;;177.50;;
11269;SDS011;5692;48.956;9.200;2022-08-19T07:33:05;196.20;;;186.80;;
11269;SDS011;5692;48.956;9.200;2022-08-19T07:35:31;189.65;;;180.57;;
11269;SDS011;5692;48.956;9.200;2022-08-19T07:37:58;192.85;;;183.60;;
11269;SDS011;5692;48.956;9.200;2022-08-19T07:40:27;197.57;;;188.10;;
11269;SDS011;5692;48.956;9.200;2022-08-19T07:42:53;173.73;;;165.43;;
11269;SDS011;5692;48.956;9.200;2022-08-19T07:45:19;168.98;;;160.88;;
11269;SDS011;5692;48.956;9.200;2022-08-19T07:47:45;171.90;;;163.65;;
11269;SDS011;5692;48.956;9.200;2022-08-19T07:50:12;184.55;;;175.73;;
11269;SDS011;5692;48.956;9.200;2022-08-19T07:52:41;173.60;;;165.27;;
11269;SDS011;5692;48.956;9.200;2022-08-19T07:55:09;192.15;;;182.95;;
11269;SDS011;5692;48.956;9.200;2022-08-19T07:57:35;195.27;;;185.93;;
11269;SDS011;5692;48.956;9.200;2022-08-19T08:00:03;189.82;;;180.75;;
11269;SDS011;5692;48.956;9.200;2022-08-19T08:02:29;190.93;;;181.77;;
11269;SDS011;5692;48.956;9.200;2022-08-19T08:04:55;188.93;;;179.88;;
11269;SDS011;5692;48.956;9.200;2022-08-19T08:07:40;194.05;;;184.77;;
11269;SDS011;5692;48.956;9.200;2022-08-19T08:10:24;188.30;;;179.30;;
11269;SDS011;5692;48.956;9.200;2022-08-19T08:12:51;205.73;;;195.88;;
11269;SDS011;5692;48.956;9.200;2022-08-19T08:15:17;200.18;;;190.57;;
11269;SDS011;5692;48.956;9.200;2022-08-19T08:17:46;196.25;;;186.85;;
11269;SDS011;5692;48.956;9.200;2022-08-19T08:20:13;197.43;;;187.98;;
11269;SDS011;5692;48.956;9.200;2022-08-19T08:22:42;204.85;;;195.05;;
11269;SDS011;5692;48.956;9.200;2022-08-19T08:25:27;187.48;;;178.48;;
11269;SDS011;5692;48.956;9.200;2022-08-19T08:27:54;190.15;;;181.05;;
11269;SDS011;5692;48.956;9.200;2022-08-19T08:30:22;188.57;;;179.57;;
11269;SDS011;5692;48.956;9.200;2022-08-19T08:32:49;194.07;;;184.77;;
11269;SDS011;5692;48.956;9.200;2022-08-19T08:35:16;198.07;;;188.60;;
11269;SDS011;5692;48.956;9.200;2022-08-19T08:37:43;181.75;;;173.05;;
11269;SDS011;5692;48.956;9.200;2022-08-19T08:43:11;186.80;;;177.85;;
11269;SDS011;5692;48.956;9.200;2022-08-19T08:45:43;197.48;;;188.02;;
11269;SDS011;5692;48.956;9.200;2022-08-19T08:48:27;206.15;;;196.30;;
11269;SDS011;5692;48.956;9.200;2022-08-19T08:50:58;202.93;;;193.20;;
11269;SDS011;5692;48.956;9.200;2022-08-19T08:53:26;198.30;;;188.80;;
11269;SDS011;5692;48.956;9.200;2022-08-19T08:55:52;215.60;;;205.30;;
11269;SDS011;5692;48.956;9.200;2022-08-19T09:01:17;202.55;;;192.85;;
11269;SDS011;5692;48.956;9.200;2022-08-19T09:03:44;209.82;;;199.77;;
11269;SDS011;5692;48.956;9.200;2022-08-19T09:06:17;219.45;;;208.95;;
11269;SDS011;5692;48.956;9.200;2022-08-19T09:08:49;186.98;;;178.02;;
11269;SDS011;5692;48.956;9.200;2022-08-19T09:16:35;192.90;;;183.68;;
11269;SDS011;5692;48.956;9.200;2022-08-19T09:19:06;181.23;;;172.55;;
11269;SDS011;5692;48.956;9.200;2022-08-19T09:21:33;185.60;;;176.73;;
11269;SDS011;5692;48.956;9.200;2022-08-19T09:24:02;180.60;;;171.95;;
11269;SDS011;5692;48.956;9.200;2022-08-19T09:26:29;180.73;;;172.07;;
11269;SDS011;5692;48.956;9.200;2022-08-19T09:28:57;179.85;;;171.23;;
11269;SDS011;5692;48.956;9.200;2022-08-19T09:31:25;186.55;;;177.65;;
11269;SDS011;5692;48.956;9.200;2022-08-19T09:33:52;191.80;;;182.60;;
11269;SDS011;5692;48.956;9.200;2022-08-19T09:36:22;191.32;;;182.18;;
11269;SDS011;5692;48.956;9.200;2022-08-19T09:38:49;190.00;;;180.90;;
11269;SDS011;5692;48.956;9.200;2022-08-19T09:41:20;197.65;;;188.20;;
11269;SDS011;5692;48.956;9.200;2022-08-19T09:43:51;189.52;;;180.45;;
11269;SDS011;5692;48.956;9.200;2022-08-19T09:46:18;200.82;;;191.20;;
11269;SDS011;5692;48.956;9.200;2022-08-19T09:48:47;206.80;;;196.90;;
11269;SDS011;5692;48.956;9.200;2022-08-19T09:51:18;188.38;;;179.38;;
11269;SDS011;5692;48.956;9.200;2022-08-19T09:53:47;186.95;;;178.00;;
11269;SDS011;5692;48.956;9.200;2022-08-19T09:56:21;179.82;;;171.23;;
11269;SDS011;5692;48.956;9.200;2022-08-19T09:58:50;196.02;;;186.65;;
11269;SDS011;5692;48.956;9.200;2022-08-19T10:01:18;199.68;;;190.07;;
11269;SDS011;5692;48.956;9.200;2022-08-19T10:03:48;199.27;;;189.73;;
11269;SDS011;5692;48.956;9.200;2022-08-19T10:06:28;185.93;;;177.02;;
11269;SDS011;5692;48.956;9.200;2022-08-19T10:08:57;191.88;;;182.68;;
11269;SDS011;5692;48.956;9.200;2022-08-19T10:11:24;180.43;;;171.80;;
11269;SDS011;5692;48.956;9.200;2022-08-19T10:13:51;187.85;;;178.85;;
11269;SDS011;5692;48.956;9.200;2022-08-19T10:16:18;193.40;;;184.13;;
11269;SDS011;5692;48.956;9.200;2022-08-19T10:18:46;201.88;;;192.20;;
11269;SDS011;5692;48.956;9.200;2022-08-19T10:21:14;183.70;;;174.90;;
11269;SDS011;5692;48.956;9.200;2022-08-19T10:23:41;192.30;;;183.10;;
11269;SDS011;5692;48.956;9.200;2022-08-19T10:26:16;194.40;;;185.10;;
11269;SDS011;5692;48.956;9.200;2022-08-19T10:28:42;198.18;;;188.70;;
11269;SDS011;5692;48.956;9.200;2022-08-19T10:31:11;176.93;;;168.43;;
11269;SDS011;5692;48.956;9.200;2022-08-19T10:33:40;188.27;;;179.25;;
11269;SDS011;5692;48.956;9.200;2022-08-19T10:36:11;188.57;;;179.52;;
11269;SDS011;5692;48.956;9.200;2022-08-19T10:38:43;195.40;;;186.05;;
11269;SDS011;5692;48.956;9.200;2022-08-19T10:41:14;195.38;;;186.02;;
11269;SDS011;5692;48.956;9.200;2022-08-19T10:43:40;190.20;;;181.07;;
11269;SDS011;5692;48.956;9.200;2022-08-19T10:46:10;190.30;;;181.20;;
11269;SDS011;5692;48.956;9.200;2022-08-19T10:48:40;188.10;;;179.10;;
11269;SDS011;5692;48.956;9.200;2022-08-19T10:51:06;202.05;;;192.35;;
11269;SDS011;5692;48.956;9.200;2022-08-19T10:53:51;189.25;;;180.20;;
11269;SDS011;5692;48.956;9.200;2022-08-19T10:56:17;190.32;;;181.20;;
11269;SDS011;5692;48.956;9.200;2022-08-19T10:59:03;199.80;;;190.23;;
11269;SDS011;5692;48.956;9.200;2022-08-19T11:01:29;198.48;;;188.98;;
11269;SDS011;5692;48.956;9.200;2022-08-19T11:04:02;207.73;;;197.80;;
11269;SDS011;5692;48.956;9.200;2022-08-19T11:06:28;207.40;;;197.50;;
11269;SDS011;5692;48.956;9.200;2022-08-19T11:08:56;188.90;;;179.85;;
11269;SDS011;5692;48.956;9.200;2022-08-19T11:11:24;182.20;;;173.50;;
11269;SDS011;5692;48.956;9.200;2022-08-19T11:13:51;180.43;;;171.80;;
11269;SDS011;5692;48.956;9.200;2022-08-19T11:16:25;170.60;;;162.43;;
11269;SDS011;5692;48.956;9.200;2022-08-19T11:18:56;199.10;;;189.60;;
11269;SDS011;5692;48.956;9.200;2022-08-19T11:21:32;187.80;;;178.80;;
11269;SDS011;5692;48.956;9.200;2022-08-19T11:24:04;190.02;;;180.93;;
11269;SDS011;5692;48.956;9.200;2022-08-19T11:26:31;199.38;;;189.82;;
11269;SDS011;5692;48.956;9.200;2022-08-19T11:29:01;200.33;;;190.73;;
11269;SDS011;5692;48.956;9.200;2022-08-19T11:31:29;194.05;;;184.75;;
11269;SDS011;5692;48.956;9.200;2022-08-19T11:33:59;188.23;;;179.23;;
11269;SDS011;5692;48.956;9.200;2022-08-19T11:36:26;187.05;;;178.10;;
11269;SDS011;5692;48.956;9.200;2022-08-19T11:38:53;197.85;;;188.35;;
11269;SDS011;5692;48.956;9.200;2022-08-19T11:41:19;202.75;;;193.05;;
11269;SDS011;5692;48.956;9.200;2022-08-19T11:43:51;211.10;;;201.00;;
11269;SDS011;5692;48.956;9.200;2022-08-19T11:46:19;187.10;;;178.15;;
11269;SDS011;5692;48.956;9.200;2022-08-19T11:48:45;177.13;;;168.63;;
11269;SDS011;5692;48.956;9.200;2022-08-19T11:51:21;183.80;;;175.00;;
11269;SDS011;5692;48.956;9.200;2022-08-19T11:53:47;188.88;;;179.82;;
11269;SDS011;5692;48.956;9.200;2022-08-19T11:56:18;184.00;;;175.18;;
11269;SDS011;5692;48.956;9.200;2022-08-19T11:58:45;185.48;;;176.60;;
11269;SDS011;5692;48.956;9.200;2022-08-19T12:01:12;180.10;;;171.50;;
11269;SDS011;5692;48.956;9.200;2022-08-19T12:03:42;203.80;;;194.03;;
11269;SDS011;5692;48.956;9.200;2022-08-19T12:06:37;204.30;;;194.52;;
11269;SDS011;5692;48.956;9.200;2022-08-19T12:09:05;201.63;;;191.97;;
11269;SDS011;5692;48.956;9.200;2022-08-19T12:11:32;192.10;;;182.90;;
11269;SDS011;5692;48.956;9.200;2022-08-19T12:14:01;197.90;;;188.40;;
11269;SDS011;5692;48.956;9.200;2022-08-19T12:16:30;193.70;;;184.43;;
11269;SDS011;5692;48.956;9.200;2022-08-19T12:18:59;186.87;;;177.93;;
11269;SDS011;5692;48.956;9.200;2022-08-19T12:21:28;197.27;;;187.83;;
11269;SDS011;5692;48.956;9.200;2022-08-19T12:23:58;202.30;;;192.63;;
11269;SDS011;5692;48.956;9.200;2022-08-19T12:26:27;190.57;;;181.43;;
11269;SDS011;5692;48.956;9.200;2022-08-19T12:28:53;202.50;;;192.80;;
11269;SDS011;5692;48.956;9.200;2022-08-19T12:31:22;202.47;;;192.77;;
11269;SDS011;5692;48.956;9.200;2022-08-19T12:33:48;209.63;;;199.60;;
11269;SDS011;5692;48.956;9.200;2022-08-19T12:36:24;210.57;;;200.47;;
11269;SDS011;5692;48.956;9.200;2022-08-19T12:38:51;209.70;;;199.70;;
11269;SDS011;5692;48.956;9.200;2022-08-19T12:41:22;204.65;;;194.85;;
11269;SDS011;5692;48.956;9.200;2022-08-19T12:43:51;204.93;;;195.13;;
11269;SDS011;5692;48.956;9.200;2022-08-19T12:46:17;193.10;;;183.85;;
11269;SDS011;5692;48.956;9.200;2022-08-19T12:48:44;204.98;;;195.18;;
11269;SDS011;5692;48.956;9.200;2022-08-19T12:51:14;196.75;;;187.32;;
11269;SDS011;5692;48.956;9.200;2022-08-19T12:53:45;212.57;;;202.40;;
11269;SDS011;5692;48.956;9.200;2022-08-19T12:56:14;213.43;;;203.20;;
11269;SDS011;5692;48.956;9.200;2022-08-19T12:58:42;211.50;;;201.38;;
11269;SDS011;5692;48.956;9.200;2022-08-19T13:01:10;198.38;;;188.88;;
11269;SDS011;5692;48.956;9.200;2022-08-19T13:03:36;202.40;;;192.70;;
11269;SDS011;5692;48.956;9.200;2022-08-19T13:06:02;210.77;;;200.68;;
11269;SDS011;5692;48.956;9.200;2022-08-19T13:08:31;208.02;;;198.07;;
11269;SDS011;5692;48.956;9.200;2022-08-19T13:10:57;213.65;;;203.43;;
11269;SDS011;5692;48.956;9.200;2022-08-19T13:13:31;214.27;;;204.02;;
11269;SDS011;5692;48.956;9.200;2022-08-19T13:16:00;208.10;;;198.15;;
11269;SDS011;5692;48.956;9.200;2022-08-19T13:18:29;191.63;;;182.43;;
11269;SDS011;5692;48.956;9.200;2022-08-19T13:20:56;208.60;;;198.60;;
11269;SDS011;5692;48.956;9.200;2022-08-19T13:23:22;211.18;;;201.05;;
11269;SDS011;5692;48.956;9.200;2022-08-19T13:25:58;198.27;;;188.77;;
11269;SDS011;5692;48.956;9.200;2022-08-19T13:28:24;189.98;;;180.88;;
11269;SDS011;5692;48.956;9.200;2022-08-19T13:30:50;186.60;;;177.65;;
11269;SDS011;5692;48.956;9.200;2022-08-19T13:33:35;208.30;;;198.30;;
11269;SDS011;5692;48.956;9.200;2022-08-19T13:36:02;204.38;;;194.60;;
11269;SDS011;5692;48.956;9.200;2022-08-19T13:38:32;210.00;;;199.95;;
11269;SDS011;5692;48.956;9.200;2022-08-19T13:41:03;193.18;;;183.93;;
11269;SDS011;5692;48.956;9.200;2022-08-19T13:43:29;199.43;;;189.88;;
11269;SDS011;5692;48.956;9.200;2022-08-19T13:45:55;196.48;;;187.07;;
11269;SDS011;5692;48.956;9.200;2022-08-19T13:48:21;210.57;;;200.50;;
11269;SDS011;5692;48.956;9.200;2022-08-19T13:50:50;200.98;;;191.35;;
11269;SDS011;5692;48.956;9.200;2022-08-19T13:53:16;198.23;;;188.73;;
11269;SDS011;5692;48.956;9.200;2022-08-19T13:55:43;205.25;;;195.45;;
11269;SDS011;5692;48.956;9.200;2022-08-19T13:58:09;204.93;;;195.13;;
11269;SDS011;5692;48.956;9.200;2022-08-19T14:00:37;191.02;;;181.88;;
11269;SDS011;5692;48.956;9.200;2022-08-19T14:03:04;202.20;;;192.50;;
11269;SDS011;5692;48.956;9.200;2022-08-19T14:05:31;200.20;;;190.60;;
11269;SDS011;5692;48.956;9.200;2022-08-19T14:07:57;182.23;;;173.50;;
11269;SDS011;5692;48.956;9.200;2022-08-19T14:10:24;183.48;;;174.68;;
11269;SDS011;5692;48.956;9.200;2022-08-19T14:12:54;195.65;;;186.27;;
11269;SDS011;5692;48.956;9.200;2022-08-19T14:15:20;196.23;;;186.82;;
11269;SDS011;5692;48.956;9.200;2022-08-19T14:17:51;194.15;;;184.85;;
11269;SDS011;5692;48.956;9.200;2022-08-19T14:20:17;200.02;;;190.45;;
11269;SDS011;5692;48.956;9.200;2022-08-19T14:22:47;202.02;;;192.38;;
11269;SDS011;5692;48.956;9.200;2022-08-19T14:25:20;197.85;;;188.35;;
11269;SDS011;5692;48.956;9.200;2022-08-19T14:27:46;195.30;;;185.95;;
11269;SDS011;5692;48.956;9.200;2022-08-19T14:30:17;198.20;;;188.70;;
11269;SDS011;5692;48.956;9.200;2022-08-19T14:32:43;192.35;;;183.15;;
11269;SDS011;5692;48.956;9.200;2022-08-19T14:35:10;199.68;;;190.10;;